sensor_id;sensor_type;location;lat;lon;timestamp;P1;durP1;ratioP1;P2;durP2;ratioP2
57023;SDS011;42916;54.346;18.562;2023-08-21T04:38:30;6.20;;;3.50;;
57023;SDS011;42916;54.346;18.562;2023-08-21T04:41:05;5.00;;;3.10;;
57023;SDS011;42916;54.346;18.562;2023-08-21T04:43:34;5.30;;;3.40;;
57023;SDS011;42916;54.346;18.562;2023-08-21T04:46:02;4.30;;;3.40;;
57023;SDS011;42916;54.346;18.562;2023-08-21T04:48:29;7.40;;;3.50;;
57023;SDS011;42916;54.346;18.562;2023-08-21T04:50:56;4.60;;;3.60;;
57023;SDS011;42916;54.346;18.562;2023-08-21T04:53:23;4.90;;;3.20;;
57023;SDS011;42916;54.346;18.562;2023-08-21T04:55:50;6.00;;;2.90;;
57023;SDS011;42916;54.346;18.562;2023-08-21T04:58:17;8.50;;;3.10;;
57023;SDS011;42916;54.346;18.562;2023-08-21T05:00:44;4.50;;;3.00;;
57023;SDS011;42916;54.346;18.562;2023-08-21T05:03:12;5.80;;;3.70;;
57023;SDS011;42916;54.346;18.562;2023-08-21T05:05:51;7.80;;;3.90;;
57023;SDS011;42916;54.346;18.562;2023-08-21T05:08:20;5.80;;;3.50;;
57023;SDS011;42916;54.346;18.562;2023-08-21T05:10:48;8.00;;;3.80;;
57023;SDS011;42916;54.346;18.562;2023-08-21T05:13:20;8.00;;;3.90;;
57023;SDS011;42916;54.346;18.562;2023-08-21T05:15:50;5.80;;;3.70;;
57023;SDS011;42916;54.346;18.562;2023-08-21T05:18:22;5.10;;;3.80;;
57023;SDS011;42916;54.346;18.562;2023-08-21T05:20:50;7.00;;;3.90;;
57023;SDS011;42916;54.346;18.562;2023-08-21T05:23:37;6.50;;;3.80;;
57023;SDS011;42916;54.346;18.562;2023-08-21T05:26:07;6.70;;;3.60;;
57023;SDS011;42916;54.346;18.562;2023-08-21T05:28:34;7.20;;;4.10;;
57023;SDS011;42916;54.346;18.562;2023-08-21T05:31:01;6.10;;;3.90;;
57023;SDS011;42916;54.346;18.562;2023-08-21T05:33:31;8.10;;;3.80;;
57023;SDS011;42916;54.346;18.562;2023-08-21T05:35:59;7.40;;;3.60;;
57023;SDS011;42916;54.346;18.562;2023-08-21T05:38:26;9.10;;;4.20;;
57023;SDS011;42916;54.346;18.562;2023-08-21T05:40:53;5.60;;;3.30;;
57023;SDS011;42916;54.346;18.562;2023-08-21T05:43:20;7.40;;;3.60;;
57023;SDS011;42916;54.346;18.562;2023-08-21T05:45:47;7.40;;;3.90;;
57023;SDS011;42916;54.346;18.562;2023-08-21T05:48:15;8.70;;;3.80;;
57023;SDS011;42916;54.346;18.562;2023-08-21T05:50:43;9.40;;;4.50;;
57023;SDS011;42916;54.346;18.562;2023-08-21T05:53:10;7.10;;;3.80;;
57023;SDS011;42916;54.346;18.562;2023-08-21T05:55:36;7.60;;;3.80;;
57023;SDS011;42916;54.346;18.562;2023-08-21T05:58:03;10.70;;;4.10;;
57023;SDS011;42916;54.346;18.562;2023-08-21T06:00:30;5.60;;;3.70;;
57023;SDS011;42916;54.346;18.562;2023-08-21T06:02:59;3.30;;;2.80;;
57023;SDS011;42916;54.346;18.562;2023-08-21T06:05:55;9.70;;;3.70;;
57023;SDS011;42916;54.346;18.562;2023-08-21T06:08:22;6.10;;;3.40;;
57023;SDS011;42916;54.346;18.562;2023-08-21T06:10:52;5.90;;;3.00;;
57023;SDS011;42916;54.346;18.562;2023-08-21T06:13:19;7.90;;;3.10;;
57023;SDS011;42916;54.346;18.562;2023-08-21T06:18:15;7.20;;;3.40;;
57023;SDS011;42916;54.346;18.562;2023-08-21T06:20:42;13.20;;;3.60;;
57023;SDS011;42916;54.346;18.562;2023-08-21T06:23:12;10.60;;;4.40;;
57023;SDS011;42916;54.346;18.562;2023-08-21T06:25:39;5.50;;;3.30;;
57023;SDS011;42916;54.346;18.562;2023-08-21T06:28:11;7.40;;;3.90;;
57023;SDS011;42916;54.346;18.562;2023-08-21T06:30:37;6.60;;;3.00;;
57023;SDS011;42916;54.346;18.562;2023-08-21T06:33:04;7.00;;;3.70;;
57023;SDS011;42916;54.346;18.562;2023-08-21T06:35:31;6.70;;;3.00;;
57023;SDS011;42916;54.346;18.562;2023-08-21T06:37:58;8.00;;;3.60;;
57023;SDS011;42916;54.346;18.562;2023-08-21T06:40:24;6.50;;;3.40;;
57023;SDS011;42916;54.346;18.562;2023-08-21T06:42:51;6.90;;;3.60;;
57023;SDS011;42916;54.346;18.562;2023-08-21T06:45:21;5.70;;;3.50;;
57023;SDS011;42916;54.346;18.562;2023-08-21T06:47:49;6.10;;;3.40;;
57023;SDS011;42916;54.346;18.562;2023-08-21T06:50:17;5.10;;;3.30;;
57023;SDS011;42916;54.346;18.562;2023-08-21T06:52:44;8.80;;;3.60;;
57023;SDS011;42916;54.346;18.562;2023-08-21T06:55:10;8.50;;;3.70;;
57023;SDS011;42916;54.346;18.562;2023-08-21T06:57:37;5.60;;;3.10;;
57023;SDS011;42916;54.346;18.562;2023-08-21T07:00:05;7.30;;;3.30;;
57023;SDS011;42916;54.346;18.562;2023-08-21T07:02:32;6.90;;;3.00;;
57023;SDS011;42916;54.346;18.562;2023-08-21T07:04:59;5.40;;;3.00;;
57023;SDS011;42916;54.346;18.562;2023-08-21T07:07:26;6.10;;;3.40;;
57023;SDS011;42916;54.346;18.562;2023-08-21T07:09:53;8.10;;;3.30;;
57023;SDS011;42916;54.346;18.562;2023-08-21T07:12:19;8.10;;;3.90;;
57023;SDS011;42916;54.346;18.562;2023-08-21T07:17:15;8.30;;;3.20;;
57023;SDS011;42916;54.346;18.562;2023-08-21T07:19:42;7.30;;;3.10;;
57023;SDS011;42916;54.346;18.562;2023-08-21T07:22:08;6.60;;;2.50;;
57023;SDS011;42916;54.346;18.562;2023-08-21T07:24:35;6.60;;;3.00;;
57023;SDS011;42916;54.346;18.562;2023-08-21T07:27:02;7.10;;;3.20;;
57023;SDS011;42916;54.346;18.562;2023-08-21T07:29:29;7.20;;;2.60;;
57023;SDS011;42916;54.346;18.562;2023-08-21T07:31:56;9.00;;;3.00;;
57023;SDS011;42916;54.346;18.562;2023-08-21T07:34:22;8.10;;;2.90;;
57023;SDS011;42916;54.346;18.562;2023-08-21T07:36:49;7.10;;;2.70;;
57023;SDS011;42916;54.346;18.562;2023-08-21T07:39:16;9.30;;;2.90;;
57023;SDS011;42916;54.346;18.562;2023-08-21T07:41:42;5.30;;;2.60;;
57023;SDS011;42916;54.346;18.562;2023-08-21T07:44:09;6.00;;;2.80;;
57023;SDS011;42916;54.346;18.562;2023-08-21T07:46:36;5.50;;;2.70;;
57023;SDS011;42916;54.346;18.562;2023-08-21T07:49:02;7.70;;;2.50;;
57023;SDS011;42916;54.346;18.562;2023-08-21T07:51:29;3.90;;;1.90;;
57023;SDS011;42916;54.346;18.562;2023-08-21T07:53:56;6.50;;;2.20;;
57023;SDS011;42916;54.346;18.562;2023-08-21T07:56:22;9.10;;;2.60;;
57023;SDS011;42916;54.346;18.562;2023-08-21T07:58:49;7.30;;;2.50;;
57023;SDS011;42916;54.346;18.562;2023-08-21T08:01:16;5.40;;;2.40;;
57023;SDS011;42916;54.346;18.562;2023-08-21T08:03:43;4.90;;;2.30;;
57023;SDS011;42916;54.346;18.562;2023-08-21T08:06:10;4.60;;;2.00;;
57023;SDS011;42916;54.346;18.562;2023-08-21T08:08:36;4.90;;;2.10;;
57023;SDS011;42916;54.346;18.562;2023-08-21T08:11:03;5.20;;;2.40;;
57023;SDS011;42916;54.346;18.562;2023-08-21T08:13:31;5.50;;;2.00;;
57023;SDS011;42916;54.346;18.562;2023-08-21T08:15:58;6.80;;;2.40;;
57023;SDS011;42916;54.346;18.562;2023-08-21T08:18:25;4.40;;;2.10;;
57023;SDS011;42916;54.346;18.562;2023-08-21T08:20:51;6.90;;;1.90;;
57023;SDS011;42916;54.346;18.562;2023-08-21T08:23:19;6.60;;;2.20;;
57023;SDS011;42916;54.346;18.562;2023-08-21T08:25:47;6.10;;;2.00;;
57023;SDS011;42916;54.346;18.562;2023-08-21T08:28:13;3.40;;;1.90;;
57023;SDS011;42916;54.346;18.562;2023-08-21T08:30:40;6.00;;;2.60;;
57023;SDS011;42916;54.346;18.562;2023-08-21T08:33:07;6.10;;;2.30;;
57023;SDS011;42916;54.346;18.562;2023-08-21T08:35:33;4.10;;;2.20;;
57023;SDS011;42916;54.346;18.562;2023-08-21T08:38:00;4.00;;;1.90;;
57023;SDS011;42916;54.346;18.562;2023-08-21T08:40:27;6.20;;;2.00;;
57023;SDS011;42916;54.346;18.562;2023-08-21T08:42:54;7.20;;;2.30;;
57023;SDS011;42916;54.346;18.562;2023-08-21T08:45:23;4.10;;;2.00;;
57023;SDS011;42916;54.346;18.562;2023-08-21T08:48:01;5.30;;;1.90;;
57023;SDS011;42916;54.346;18.562;2023-08-21T08:50:31;3.80;;;1.90;;
57023;SDS011;42916;54.346;18.562;2023-08-21T08:52:59;8.10;;;1.90;;
57023;SDS011;42916;54.346;18.562;2023-08-21T08:55:26;5.70;;;2.10;;
57023;SDS011;42916;54.346;18.562;2023-08-21T08:57:53;5.00;;;2.10;;
57023;SDS011;42916;54.346;18.562;2023-08-21T09:00:20;7.10;;;2.30;;
57023;SDS011;42916;54.346;18.562;2023-08-21T09:02:48;5.30;;;2.20;;
57023;SDS011;42916;54.346;18.562;2023-08-21T09:05:15;5.90;;;2.00;;
57023;SDS011;42916;54.346;18.562;2023-08-21T09:07:42;7.70;;;2.40;;
57023;SDS011;42916;54.346;18.562;2023-08-21T09:10:17;5.00;;;2.00;;
57023;SDS011;42916;54.346;18.562;2023-08-21T09:12:45;7.10;;;1.90;;
57023;SDS011;42916;54.346;18.562;2023-08-21T09:15:13;5.30;;;2.10;;
57023;SDS011;42916;54.346;18.562;2023-08-21T09:17:40;3.60;;;1.70;;
57023;SDS011;42916;54.346;18.562;2023-08-21T09:20:07;4.30;;;1.70;;
57023;SDS011;42916;54.346;18.562;2023-08-21T09:22:34;4.40;;;1.70;;
57023;SDS011;42916;54.346;18.562;2023-08-21T09:25:02;3.90;;;1.90;;
57023;SDS011;42916;54.346;18.562;2023-08-21T09:27:33;2.70;;;1.50;;
57023;SDS011;42916;54.346;18.562;2023-08-21T09:30:11;3.70;;;2.00;;
57023;SDS011;42916;54.346;18.562;2023-08-21T09:32:58;5.50;;;2.00;;
57023;SDS011;42916;54.346;18.562;2023-08-21T09:35:32;3.30;;;1.50;;
57023;SDS011;42916;54.346;18.562;2023-08-21T09:38:00;4.90;;;1.70;;
57023;SDS011;42916;54.346;18.562;2023-08-21T09:40:26;3.30;;;1.40;;
57023;SDS011;42916;54.346;18.562;2023-08-21T09:42:53;4.00;;;1.60;;
57023;SDS011;42916;54.346;18.562;2023-08-21T09:45:24;6.10;;;1.60;;
57023;SDS011;42916;54.346;18.562;2023-08-21T09:47:51;5.80;;;1.70;;
57023;SDS011;42916;54.346;18.562;2023-08-21T09:50:19;4.90;;;1.70;;
57023;SDS011;42916;54.346;18.562;2023-08-21T09:52:46;5.70;;;1.60;;
57023;SDS011;42916;54.346;18.562;2023-08-21T09:55:14;5.10;;;1.70;;
57023;SDS011;42916;54.346;18.562;2023-08-21T09:57:41;4.70;;;1.50;;
57023;SDS011;42916;54.346;18.562;2023-08-21T10:00:08;2.50;;;1.20;;
57023;SDS011;42916;54.346;18.562;2023-08-21T10:02:50;4.60;;;1.50;;
57023;SDS011;42916;54.346;18.562;2023-08-21T10:05:18;5.90;;;1.40;;
57023;SDS011;42916;54.346;18.562;2023-08-21T10:07:49;5.50;;;1.60;;
57023;SDS011;42916;54.346;18.562;2023-08-21T10:10:17;4.00;;;1.80;;
57023;SDS011;42916;54.346;18.562;2023-08-21T10:12:44;4.90;;;1.60;;
57023;SDS011;42916;54.346;18.562;2023-08-21T10:15:11;5.10;;;1.60;;
57023;SDS011;42916;54.346;18.562;2023-08-21T10:17:38;4.00;;;1.50;;
57023;SDS011;42916;54.346;18.562;2023-08-21T10:20:06;3.70;;;1.20;;
57023;SDS011;42916;54.346;18.562;2023-08-21T10:27:42;5.10;;;1.40;;
57023;SDS011;42916;54.346;18.562;2023-08-21T10:30:13;3.50;;;1.50;;
57023;SDS011;42916;54.346;18.562;2023-08-21T10:32:48;6.00;;;1.60;;
57023;SDS011;42916;54.346;18.562;2023-08-21T10:35:17;5.20;;;1.40;;
57023;SDS011;42916;54.346;18.562;2023-08-21T10:43:42;6.20;;;2.20;;
57023;SDS011;42916;54.346;18.562;2023-08-21T10:46:11;5.80;;;2.70;;
57023;SDS011;42916;54.346;18.562;2023-08-21T10:48:39;6.10;;;2.10;;
57023;SDS011;42916;54.346;18.562;2023-08-21T10:51:06;4.40;;;1.60;;
57023;SDS011;42916;54.346;18.562;2023-08-21T10:53:35;3.80;;;1.40;;
57023;SDS011;42916;54.346;18.562;2023-08-21T10:56:03;4.40;;;1.50;;
57023;SDS011;42916;54.346;18.562;2023-08-21T11:01:10;4.00;;;1.50;;
57023;SDS011;42916;54.346;18.562;2023-08-21T11:03:39;3.00;;;1.30;;
57023;SDS011;42916;54.346;18.562;2023-08-21T11:06:07;5.00;;;1.40;;
57023;SDS011;42916;54.346;18.562;2023-08-21T11:08:35;4.80;;;1.70;;
57023;SDS011;42916;54.346;18.562;2023-08-21T11:11:03;6.20;;;1.70;;
57023;SDS011;42916;54.346;18.562;2023-08-21T11:13:31;5.10;;;1.30;;
57023;SDS011;42916;54.346;18.562;2023-08-21T11:21:06;5.40;;;1.30;;
57023;SDS011;42916;54.346;18.562;2023-08-21T11:23:38;3.40;;;1.40;;
57023;SDS011;42916;54.346;18.562;2023-08-21T11:26:07;3.70;;;1.30;;
57023;SDS011;42916;54.346;18.562;2023-08-21T11:28:39;4.20;;;1.50;;
57023;SDS011;42916;54.346;18.562;2023-08-21T11:31:06;3.90;;;1.70;;
57023;SDS011;42916;54.346;18.562;2023-08-21T11:33:32;3.10;;;1.40;;
57023;SDS011;42916;54.346;18.562;2023-08-21T11:35:59;3.80;;;1.30;;
57023;SDS011;42916;54.346;18.562;2023-08-21T11:38:26;3.40;;;1.30;;
57023;SDS011;42916;54.346;18.562;2023-08-21T11:41:01;3.80;;;1.30;;
57023;SDS011;42916;54.346;18.562;2023-08-21T11:43:35;5.10;;;1.60;;
57023;SDS011;42916;54.346;18.562;2023-08-21T11:46:05;3.70;;;1.00;;
57023;SDS011;42916;54.346;18.562;2023-08-21T11:48:32;2.90;;;1.30;;
57023;SDS011;42916;54.346;18.562;2023-08-21T11:51:01;4.20;;;1.30;;
57023;SDS011;42916;54.346;18.562;2023-08-21T11:56:02;4.50;;;1.10;;
57023;SDS011;42916;54.346;18.562;2023-08-21T11:58:42;3.70;;;1.20;;
57023;SDS011;42916;54.346;18.562;2023-08-21T12:01:18;4.20;;;1.30;;
57023;SDS011;42916;54.346;18.562;2023-08-21T12:03:46;5.90;;;1.30;;
57023;SDS011;42916;54.346;18.562;2023-08-21T12:06:20;4.70;;;1.50;;
57023;SDS011;42916;54.346;18.562;2023-08-21T12:08:48;3.20;;;1.10;;
57023;SDS011;42916;54.346;18.562;2023-08-21T12:11:15;3.80;;;1.10;;
57023;SDS011;42916;54.346;18.562;2023-08-21T12:13:41;4.70;;;1.30;;
57023;SDS011;42916;54.346;18.562;2023-08-21T12:16:08;4.90;;;1.30;;
57023;SDS011;42916;54.346;18.562;2023-08-21T12:18:35;2.80;;;1.10;;
57023;SDS011;42916;54.346;18.562;2023-08-21T12:21:01;3.40;;;1.20;;
57023;SDS011;42916;54.346;18.562;2023-08-21T12:23:28;2.50;;;1.00;;
57023;SDS011;42916;54.346;18.562;2023-08-21T12:25:55;3.40;;;1.00;;
57023;SDS011;42916;54.346;18.562;2023-08-21T12:28:22;4.50;;;1.10;;
57023;SDS011;42916;54.346;18.562;2023-08-21T12:30:49;3.00;;;1.00;;
57023;SDS011;42916;54.346;18.562;2023-08-21T12:33:16;6.50;;;1.10;;
57023;SDS011;42916;54.346;18.562;2023-08-21T12:35:43;3.90;;;0.90;;
57023;SDS011;42916;54.346;18.562;2023-08-21T12:38:12;3.00;;;0.90;;
57023;SDS011;42916;54.346;18.562;2023-08-21T12:40:39;3.60;;;0.80;;
57023;SDS011;42916;54.346;18.562;2023-08-21T12:43:06;3.20;;;1.00;;
57023;SDS011;42916;54.346;18.562;2023-08-21T12:45:33;3.50;;;1.00;;
57023;SDS011;42916;54.346;18.562;2023-08-21T12:48:02;4.00;;;0.90;;
57023;SDS011;42916;54.346;18.562;2023-08-21T12:50:30;2.20;;;0.70;;
57023;SDS011;42916;54.346;18.562;2023-08-21T12:52:57;3.80;;;1.10;;
57023;SDS011;42916;54.346;18.562;2023-08-21T12:55:23;1.50;;;0.60;;
57023;SDS011;42916;54.346;18.562;2023-08-21T12:57:50;4.30;;;0.90;;
57023;SDS011;42916;54.346;18.562;2023-08-21T13:00:17;3.90;;;1.20;;
57023;SDS011;42916;54.346;18.562;2023-08-21T13:02:44;2.90;;;0.90;;
57023;SDS011;42916;54.346;18.562;2023-08-21T13:05:10;6.50;;;1.10;;
57023;SDS011;42916;54.346;18.562;2023-08-21T13:07:37;4.00;;;1.00;;
57023;SDS011;42916;54.346;18.562;2023-08-21T13:10:04;3.90;;;0.90;;
57023;SDS011;42916;54.346;18.562;2023-08-21T13:12:31;2.90;;;1.00;;
57023;SDS011;42916;54.346;18.562;2023-08-21T13:14:58;5.20;;;1.00;;
57023;SDS011;42916;54.346;18.562;2023-08-21T13:17:25;2.20;;;0.80;;
57023;SDS011;42916;54.346;18.562;2023-08-21T13:19:52;5.10;;;1.70;;
57023;SDS011;42916;54.346;18.562;2023-08-21T13:22:19;3.20;;;1.40;;
57023;SDS011;42916;54.346;18.562;2023-08-21T13:24:45;3.00;;;0.90;;
57023;SDS011;42916;54.346;18.562;2023-08-21T13:27:12;3.80;;;0.90;;
57023;SDS011;42916;54.346;18.562;2023-08-21T13:29:39;4.50;;;0.90;;
57023;SDS011;42916;54.346;18.562;2023-08-21T13:32:06;3.60;;;0.90;;
57023;SDS011;42916;54.346;18.562;2023-08-21T13:34:33;3.30;;;0.90;;
57023;SDS011;42916;54.346;18.562;2023-08-21T13:37:00;2.00;;;0.90;;
57023;SDS011;42916;54.346;18.562;2023-08-21T13:39:26;4.90;;;1.00;;
57023;SDS011;42916;54.346;18.562;2023-08-21T13:41:53;4.40;;;1.00;;
57023;SDS011;42916;54.346;18.562;2023-08-21T13:44:20;5.50;;;1.00;;
57023;SDS011;42916;54.346;18.562;2023-08-21T13:46:46;4.70;;;0.90;;
57023;SDS011;42916;54.346;18.562;2023-08-21T13:49:13;4.60;;;1.20;;
57023;SDS011;42916;54.346;18.562;2023-08-21T13:51:40;3.10;;;1.10;;
57023;SDS011;42916;54.346;18.562;2023-08-21T13:54:07;4.40;;;1.00;;
57023;SDS011;42916;54.346;18.562;2023-08-21T13:56:33;2.30;;;0.80;;
57023;SDS011;42916;54.346;18.562;2023-08-21T13:59:00;6.70;;;1.00;;
57023;SDS011;42916;54.346;18.562;2023-08-21T14:01:27;4.10;;;0.90;;
57023;SDS011;42916;54.346;18.562;2023-08-21T14:03:54;2.90;;;1.00;;
57023;SDS011;42916;54.346;18.562;2023-08-21T14:06:21;4.00;;;1.00;;
57023;SDS011;42916;54.346;18.562;2023-08-21T14:08:47;8.30;;;1.20;;
57023;SDS011;42916;54.346;18.562;2023-08-21T14:11:14;4.10;;;1.20;;
57023;SDS011;42916;54.346;18.562;2023-08-21T14:13:41;3.90;;;1.20;;
57023;SDS011;42916;54.346;18.562;2023-08-21T14:16:08;4.00;;;1.10;;
57023;SDS011;42916;54.346;18.562;2023-08-21T14:18:34;3.60;;;0.90;;
57023;SDS011;42916;54.346;18.562;2023-08-21T14:21:01;4.30;;;1.20;;
57023;SDS011;42916;54.346;18.562;2023-08-21T14:23:28;3.50;;;1.00;;
57023;SDS011;42916;54.346;18.562;2023-08-21T14:25:55;4.80;;;1.10;;
57023;SDS011;42916;54.346;18.562;2023-08-21T14:28:22;3.30;;;0.70;;
57023;SDS011;42916;54.346;18.562;2023-08-21T14:30:49;2.40;;;1.10;;
57023;SDS011;42916;54.346;18.562;2023-08-21T14:33:18;7.20;;;1.10;;
57023;SDS011;42916;54.346;18.562;2023-08-21T14:35:45;2.50;;;1.10;;
57023;SDS011;42916;54.346;18.562;2023-08-21T14:38:11;5.10;;;1.20;;
57023;SDS011;42916;54.346;18.562;2023-08-21T14:40:38;3.70;;;1.00;;
57023;SDS011;42916;54.346;18.562;2023-08-21T14:43:05;3.60;;;0.90;;
57023;SDS011;42916;54.346;18.562;2023-08-21T14:45:32;4.80;;;1.20;;
57023;SDS011;42916;54.346;18.562;2023-08-21T14:47:59;4.80;;;1.10;;
57023;SDS011;42916;54.346;18.562;2023-08-21T14:50:26;4.10;;;1.00;;
57023;SDS011;42916;54.346;18.562;2023-08-21T14:52:52;4.10;;;1.00;;
57023;SDS011;42916;54.346;18.562;2023-08-21T14:55:19;4.50;;;1.10;;
57023;SDS011;42916;54.346;18.562;2023-08-21T14:57:46;4.90;;;1.20;;
57023;SDS011;42916;54.346;18.562;2023-08-21T15:00:13;4.20;;;0.90;;
57023;SDS011;42916;54.346;18.562;2023-08-21T15:02:43;2.50;;;0.90;;
57023;SDS011;42916;54.346;18.562;2023-08-21T15:05:09;3.30;;;0.80;;
57023;SDS011;42916;54.346;18.562;2023-08-21T15:07:38;6.20;;;1.00;;
57023;SDS011;42916;54.346;18.562;2023-08-21T15:10:05;4.70;;;1.00;;
57023;SDS011;42916;54.346;18.562;2023-08-21T15:12:32;4.30;;;1.00;;
57023;SDS011;42916;54.346;18.562;2023-08-21T15:14:59;3.10;;;1.00;;
57023;SDS011;42916;54.346;18.562;2023-08-21T15:17:26;2.20;;;1.00;;
57023;SDS011;42916;54.346;18.562;2023-08-21T15:22:20;12.60;;;1.50;;
57023;SDS011;42916;54.346;18.562;2023-08-21T15:24:47;3.00;;;0.90;;
57023;SDS011;42916;54.346;18.562;2023-08-21T15:27:14;4.80;;;1.30;;
57023;SDS011;42916;54.346;18.562;2023-08-21T15:29:42;2.50;;;0.90;;
57023;SDS011;42916;54.346;18.562;2023-08-21T15:32:09;2.90;;;1.20;;
57023;SDS011;42916;54.346;18.562;2023-08-21T15:34:36;4.30;;;1.30;;
57023;SDS011;42916;54.346;18.562;2023-08-21T15:37:03;5.10;;;1.30;;
57023;SDS011;42916;54.346;18.562;2023-08-21T15:39:30;4.80;;;1.30;;
57023;SDS011;42916;54.346;18.562;2023-08-21T15:41:57;3.30;;;0.80;;
57023;SDS011;42916;54.346;18.562;2023-08-21T15:44:23;2.60;;;0.90;;
57023;SDS011;42916;54.346;18.562;2023-08-21T15:46:50;6.00;;;1.30;;
57023;SDS011;42916;54.346;18.562;2023-08-21T15:49:17;4.90;;;1.20;;
57023;SDS011;42916;54.346;18.562;2023-08-21T15:51:44;2.90;;;1.10;;
57023;SDS011;42916;54.346;18.562;2023-08-21T15:54:18;5.70;;;1.10;;
57023;SDS011;42916;54.346;18.562;2023-08-21T15:56:46;6.00;;;1.30;;
57023;SDS011;42916;54.346;18.562;2023-08-21T15:59:13;4.80;;;1.30;;
57023;SDS011;42916;54.346;18.562;2023-08-21T16:01:39;5.60;;;1.40;;
57023;SDS011;42916;54.346;18.562;2023-08-21T16:04:06;5.10;;;1.40;;
57023;SDS011;42916;54.346;18.562;2023-08-21T16:06:33;4.10;;;1.40;;
57023;SDS011;42916;54.346;18.562;2023-08-21T16:09:00;4.10;;;1.30;;
57023;SDS011;42916;54.346;18.562;2023-08-21T16:11:26;7.20;;;1.50;;
57023;SDS011;42916;54.346;18.562;2023-08-21T16:13:53;4.30;;;1.50;;
57023;SDS011;42916;54.346;18.562;2023-08-21T16:16:20;5.00;;;1.40;;
57023;SDS011;42916;54.346;18.562;2023-08-21T16:18:46;6.00;;;1.90;;
57023;SDS011;42916;54.346;18.562;2023-08-21T16:21:13;6.60;;;1.50;;
57023;SDS011;42916;54.346;18.562;2023-08-21T16:23:40;5.30;;;1.50;;
57023;SDS011;42916;54.346;18.562;2023-08-21T16:26:07;5.20;;;1.90;;
57023;SDS011;42916;54.346;18.562;2023-08-21T16:28:33;5.00;;;1.70;;
57023;SDS011;42916;54.346;18.562;2023-08-21T16:31:00;4.50;;;1.60;;
57023;SDS011;42916;54.346;18.562;2023-08-21T16:33:27;8.50;;;1.80;;
57023;SDS011;42916;54.346;18.562;2023-08-21T16:35:56;5.90;;;1.50;;
57023;SDS011;42916;54.346;18.562;2023-08-21T16:38:23;3.30;;;1.10;;
57023;SDS011;42916;54.346;18.562;2023-08-21T16:40:50;5.80;;;1.60;;
57023;SDS011;42916;54.346;18.562;2023-08-21T16:43:17;5.60;;;1.50;;
57023;SDS011;42916;54.346;18.562;2023-08-21T16:45:44;6.80;;;1.60;;
57023;SDS011;42916;54.346;18.562;2023-08-21T16:48:10;5.20;;;1.50;;
57023;SDS011;42916;54.346;18.562;2023-08-21T16:50:37;5.80;;;1.30;;
57023;SDS011;42916;54.346;18.562;2023-08-21T16:53:04;4.30;;;1.50;;
57023;SDS011;42916;54.346;18.562;2023-08-21T16:55:31;5.40;;;1.50;;
57023;SDS011;42916;54.346;18.562;2023-08-21T16:57:57;4.90;;;1.50;;
57023;SDS011;42916;54.346;18.562;2023-08-21T17:00:24;4.20;;;1.40;;
57023;SDS011;42916;54.346;18.562;2023-08-21T17:02:51;6.10;;;1.70;;
57023;SDS011;42916;54.346;18.562;2023-08-21T17:05:18;5.90;;;1.70;;
57023;SDS011;42916;54.346;18.562;2023-08-21T17:07:45;5.50;;;1.40;;
57023;SDS011;42916;54.346;18.562;2023-08-21T17:10:12;6.40;;;1.70;;
57023;SDS011;42916;54.346;18.562;2023-08-21T17:12:39;4.60;;;1.70;;
57023;SDS011;42916;54.346;18.562;2023-08-21T17:15:06;6.30;;;1.60;;
57023;SDS011;42916;54.346;18.562;2023-08-21T17:17:34;6.10;;;1.60;;
57023;SDS011;42916;54.346;18.562;2023-08-21T17:20:00;5.90;;;1.80;;
57023;SDS011;42916;54.346;18.562;2023-08-21T17:22:27;5.50;;;1.70;;
57023;SDS011;42916;54.346;18.562;2023-08-21T17:24:54;9.30;;;1.50;;
57023;SDS011;42916;54.346;18.562;2023-08-21T17:27:21;4.50;;;1.30;;
57023;SDS011;42916;54.346;18.562;2023-08-21T17:29:47;5.80;;;1.40;;
57023;SDS011;42916;54.346;18.562;2023-08-21T17:32:15;5.80;;;1.70;;
57023;SDS011;42916;54.346;18.562;2023-08-21T17:34:42;5.70;;;1.40;;
57023;SDS011;42916;54.346;18.562;2023-08-21T17:37:09;5.90;;;1.60;;
57023;SDS011;42916;54.346;18.562;2023-08-21T17:39:37;6.50;;;1.40;;
57023;SDS011;42916;54.346;18.562;2023-08-21T17:42:04;5.80;;;1.60;;
57023;SDS011;42916;54.346;18.562;2023-08-21T17:44:34;7.20;;;1.60;;
57023;SDS011;42916;54.346;18.562;2023-08-21T17:47:01;5.70;;;1.60;;
57023;SDS011;42916;54.346;18.562;2023-08-21T17:49:27;9.20;;;1.30;;
57023;SDS011;42916;54.346;18.562;2023-08-21T17:51:54;4.70;;;1.70;;
57023;SDS011;42916;54.346;18.562;2023-08-21T17:54:22;6.30;;;1.80;;
57023;SDS011;42916;54.346;18.562;2023-08-21T17:56:48;6.10;;;1.60;;
57023;SDS011;42916;54.346;18.562;2023-08-21T17:59:15;7.20;;;1.60;;
57023;SDS011;42916;54.346;18.562;2023-08-21T18:01:42;6.80;;;1.70;;
57023;SDS011;42916;54.346;18.562;2023-08-21T18:04:09;4.10;;;1.60;;
57023;SDS011;42916;54.346;18.562;2023-08-21T18:06:36;7.60;;;1.90;;
57023;SDS011;42916;54.346;18.562;2023-08-21T18:09:02;11.20;;;1.70;;
57023;SDS011;42916;54.346;18.562;2023-08-21T18:11:30;5.80;;;1.90;;
57023;SDS011;42916;54.346;18.562;2023-08-21T18:13:57;5.70;;;1.60;;
57023;SDS011;42916;54.346;18.562;2023-08-21T18:16:24;4.40;;;1.80;;
57023;SDS011;42916;54.346;18.562;2023-08-21T18:18:50;4.80;;;1.60;;
57023;SDS011;42916;54.346;18.562;2023-08-21T18:21:20;7.70;;;1.70;;
57023;SDS011;42916;54.346;18.562;2023-08-21T18:23:48;4.70;;;1.70;;
57023;SDS011;42916;54.346;18.562;2023-08-21T18:26:14;5.90;;;1.70;;
57023;SDS011;42916;54.346;18.562;2023-08-21T18:28:41;6.50;;;1.50;;
57023;SDS011;42916;54.346;18.562;2023-08-21T18:31:08;5.00;;;1.70;;
57023;SDS011;42916;54.346;18.562;2023-08-21T18:33:35;6.70;;;2.30;;
57023;SDS011;42916;54.346;18.562;2023-08-21T18:36:02;5.50;;;2.00;;
57023;SDS011;42916;54.346;18.562;2023-08-21T18:38:29;7.70;;;2.30;;
57023;SDS011;42916;54.346;18.562;2023-08-21T18:40:56;7.10;;;2.00;;
57023;SDS011;42916;54.346;18.562;2023-08-21T18:43:24;6.00;;;2.30;;
57023;SDS011;42916;54.346;18.562;2023-08-21T18:45:50;7.50;;;2.90;;
57023;SDS011;42916;54.346;18.562;2023-08-21T18:48:18;5.90;;;2.40;;
57023;SDS011;42916;54.346;18.562;2023-08-21T18:50:45;6.90;;;2.40;;
57023;SDS011;42916;54.346;18.562;2023-08-21T18:53:13;6.60;;;2.40;;
57023;SDS011;42916;54.346;18.562;2023-08-21T18:55:41;7.20;;;2.50;;
57023;SDS011;42916;54.346;18.562;2023-08-21T18:58:10;9.00;;;2.60;;
57023;SDS011;42916;54.346;18.562;2023-08-21T19:00:37;8.00;;;2.70;;
57023;SDS011;42916;54.346;18.562;2023-08-21T19:03:05;10.00;;;2.20;;
57023;SDS011;42916;54.346;18.562;2023-08-21T19:05:32;8.60;;;2.60;;
57023;SDS011;42916;54.346;18.562;2023-08-21T19:08:00;7.40;;;2.50;;
57023;SDS011;42916;54.346;18.562;2023-08-21T19:10:27;8.50;;;2.40;;
57023;SDS011;42916;54.346;18.562;2023-08-21T19:12:54;8.50;;;2.60;;
57023;SDS011;42916;54.346;18.562;2023-08-21T19:15:20;5.20;;;2.20;;
57023;SDS011;42916;54.346;18.562;2023-08-21T19:17:47;7.60;;;2.50;;
57023;SDS011;42916;54.346;18.562;2023-08-21T19:20:14;9.40;;;2.40;;
57023;SDS011;42916;54.346;18.562;2023-08-21T19:22:41;6.60;;;2.40;;
57023;SDS011;42916;54.346;18.562;2023-08-21T19:25:10;6.50;;;2.60;;
57023;SDS011;42916;54.346;18.562;2023-08-21T19:27:38;8.00;;;2.50;;
57023;SDS011;42916;54.346;18.562;2023-08-21T19:30:06;9.90;;;2.80;;
57023;SDS011;42916;54.346;18.562;2023-08-21T19:32:33;9.70;;;3.00;;
57023;SDS011;42916;54.346;18.562;2023-08-21T19:35:03;9.90;;;3.10;;
57023;SDS011;42916;54.346;18.562;2023-08-21T19:37:33;6.70;;;3.00;;
57023;SDS011;42916;54.346;18.562;2023-08-21T19:40:00;6.70;;;3.10;;
57023;SDS011;42916;54.346;18.562;2023-08-21T19:42:27;7.70;;;2.70;;